Weather History for Claxton, GA

Change the Weather History Date:

Monday, March 3, 2014

  Actual Average (KSAV) Record (KSAV)
Temperature  
Mean Temperature 60 °F 56 °F  
Max Temperature 73 °F 68 °F 85 °F (1951)
Min Temperature 46 °F 45 °F 20 °F (1980)
Degree Days  
Heating Degree Days 4 9  
Month to date heating degree days 28  
Since 1 July heating degree days 1545  
Cooling Degree Days 0 1  
Month to date cooling degree days 3  
Year to date cooling degree days 13  
Growing Degree Days 10 (Base 50)    
Moisture  
Dew Point 57 °F    
Average Humidity 89    
Maximum Humidity 100    
Minimum Humidity 69    
Precipitation  
Precipitation 0.00 in 0.12 in 2.70 in (1948)
Month to date precipitation 0.35  
Year to date precipitation 6.83  
Sea Level Pressure  
Sea Level Pressure 29.95 in    
Wind  
Wind Speed 4 mph (WSW)    
Max Wind Speed 13 mph    
Max Gust Speed 26 mph    
Visibility 10 miles    
Events Rain    
T = Trace of Precipitation, MM = Missing Value Source: NWS Daily Summary

Daily Weather History Graph

Daily Weather History Graph

Search for Another Location

Airport:

Trip Planner

Search our weather history database for the weather conditions in past years. The results will help you decide how hot, cold, wet, or windy it might be!

Date:

Astronomy

Mar. 03, 2014 Rise Set
Actual Time 6:52 AM EST 6:26 PM EST
Civil Twilight 6:27 AM EST 6:51 PM EST
Nautical Twilight 5:59 AM EST 7:19 PM EST
Astronomical Twilight 5:31 AM EST 7:48 PM EST
Moon 8:10 AM EST (3/3) 9:15 PM EST (3/3)
Length of Visible Light 12h 23m
Length of Day
11h 34m
Waxing Crescent, 8% of the Moon is Illuminated
Mar 3
Waxing Crescent
Mar 8
First Quarter
Mar 16
Full
Mar 23
Last Quarter
Mar 30
New

Hourly Weather History & Observations

Time (EST) Temp. Windchill Dew Point Humidity Pressure Visibility Wind Dir Wind Speed Gust Speed Precip Events Conditions
12:15 AM 55.4 °F - 46.4 °F 72% 30.04 in 10.0 mi Calm Calm - N/A   Clear
12:35 AM 55.4 °F - 46.4 °F 72% 30.03 in 10.0 mi Calm Calm - N/A   Clear
12:55 AM 53.6 °F - 46.4 °F 77% 30.02 in 10.0 mi Calm Calm - N/A   Clear
1:15 AM 53.6 °F - 46.4 °F 77% 30.01 in 10.0 mi South 3.5 mph - N/A   Clear
1:35 AM 53.6 °F - 46.4 °F 77% 30.00 in 10.0 mi Calm Calm - N/A   Clear
1:55 AM 53.6 °F - 46.4 °F 77% 30.00 in 10.0 mi Calm Calm - N/A   Clear
2:15 AM 51.8 °F - 46.4 °F 82% 29.99 in 10.0 mi Calm Calm - N/A   Clear
2:35 AM 50.0 °F - 46.4 °F 87% 29.98 in 10.0 mi Calm Calm - N/A   Clear
2:55 AM 50.0 °F - 48.2 °F 94% 29.98 in 10.0 mi Calm Calm - N/A   Clear
3:15 AM 50.0 °F - 48.2 °F 94% 29.97 in 10.0 mi Calm Calm - N/A   Clear
3:35 AM 50.0 °F - 50.0 °F 100% 29.96 in 10.0 mi Calm Calm - N/A   Clear
3:55 AM 50.0 °F - 48.2 °F 94% 29.96 in 10.0 mi Calm Calm - N/A   Clear
4:15 AM 48.2 °F - 48.2 °F 100% 29.95 in 10.0 mi Calm Calm - N/A   Clear
4:40 AM 48.2 °F - 48.2 °F 100% 29.96 in 10.0 mi Calm Calm - N/A   Clear
4:55 AM 50.0 °F - 50.0 °F 100% 29.95 in 10.0 mi Calm Calm - N/A   Clear
5:15 AM 50.0 °F - 50.0 °F 100% 29.95 in 10.0 mi Calm Calm - N/A   Clear
5:35 AM 51.8 °F - 51.8 °F 100% 29.95 in 10.0 mi SSW 3.5 mph - N/A   Clear
5:55 AM 53.6 °F - 53.6 °F 100% 29.95 in 10.0 mi SW 4.6 mph - N/A   Clear
6:15 AM 53.6 °F - 53.6 °F 100% 29.95 in 10.0 mi Calm Calm - N/A   Clear
6:35 AM 53.6 °F - 53.6 °F 100% 29.95 in 10.0 mi WSW 4.6 mph - N/A   Mostly Cloudy
6:55 AM 55.4 °F - 55.4 °F 100% 29.95 in 10.0 mi WSW 8.1 mph - N/A   Overcast
7:15 AM 55.4 °F - 55.4 °F 100% 29.96 in 7.0 mi WSW 5.8 mph - N/A   Overcast
7:35 AM 55.4 °F - 55.4 °F 100% 29.96 in 7.0 mi WSW 5.8 mph - N/A   Overcast
7:55 AM 57.2 °F - 57.2 °F 100% 29.96 in 7.0 mi WSW 8.1 mph - N/A   Overcast
8:15 AM 59.0 °F - 59.0 °F 100% 29.95 in 10.0 mi SW 6.9 mph - N/A   Overcast
8:35 AM 59.0 °F - 59.0 °F 100% 29.96 in 10.0 mi SW 4.6 mph - N/A   Overcast
8:55 AM 60.8 °F - 60.8 °F 100% 29.96 in 10.0 mi SSW 3.5 mph - N/A   Overcast
9:15 AM 60.8 °F - 60.8 °F 100% 29.96 in 10.0 mi SW 8.1 mph - N/A   Overcast
9:55 AM 62.6 °F - 62.6 °F 100% 29.97 in 10.0 mi WSW 8.1 mph - N/A   Overcast
10:15 AM 64.4 °F - 62.6 °F 94% 29.98 in 10.0 mi West 8.1 mph - N/A   Overcast
10:35 AM 64.4 °F - 62.6 °F 94% 29.98 in 10.0 mi WSW 5.8 mph - N/A   Overcast
10:55 AM 68.0 °F - 62.6 °F 83% 29.97 in 10.0 mi WSW 4.6 mph - N/A   Overcast
11:15 AM 68.0 °F - 62.6 °F 83% 29.95 in 10.0 mi WSW 6.9 mph - N/A   Overcast
11:35 AM 68.0 °F - 62.6 °F 83% 29.95 in 10.0 mi SW 8.1 mph - N/A   Overcast
11:55 AM 69.8 °F - 62.6 °F 78% 29.94 in 10.0 mi WSW 11.5 mph 17.3 mph N/A   Overcast
12:15 PM 69.8 °F - 60.8 °F 73% 29.92 in 10.0 mi SW 9.2 mph 18.4 mph N/A   Overcast
12:35 PM 71.6 °F - 60.8 °F 69% 29.91 in 10.0 mi SW 8.1 mph - N/A   Overcast
12:55 PM 71.6 °F - 60.8 °F 69% 29.90 in 10.0 mi WSW 4.6 mph - N/A   Overcast
1:15 PM 71.6 °F - 60.8 °F 69% 29.90 in 10.0 mi SW 4.6 mph 16.1 mph N/A   Mostly Cloudy
1:35 PM 71.6 °F - 60.8 °F 69% 29.89 in 10.0 mi WSW 10.4 mph 18.4 mph N/A   Mostly Cloudy
1:55 PM 71.6 °F - 62.6 °F 73% 29.89 in 10.0 mi SW 6.9 mph - N/A   Overcast
2:15 PM 71.6 °F - 62.6 °F 73% 29.88 in 10.0 mi SW 10.4 mph 23.0 mph N/A   Mostly Cloudy
2:35 PM 73.4 °F - 62.6 °F 69% 29.87 in 10.0 mi SW 4.6 mph - N/A   Scattered Clouds
2:55 PM 73.4 °F - 62.6 °F 69% 29.87 in 10.0 mi SW 10.4 mph 18.4 mph N/A   Scattered Clouds
3:15 PM 73.4 °F - 62.6 °F 69% 29.87 in 10.0 mi SW 12.7 mph 20.7 mph N/A   Mostly Cloudy
3:35 PM 73.4 °F - 62.6 °F 69% 29.86 in 10.0 mi SSW 4.6 mph 18.4 mph N/A   Overcast
3:55 PM 73.4 °F - 64.4 °F 73% 29.86 in 10.0 mi SW 6.9 mph - N/A   Overcast
4:15 PM 73.4 °F - 64.4 °F 73% 29.86 in 10.0 mi SW 8.1 mph 16.1 mph N/A   Mostly Cloudy
4:35 PM 73.4 °F - 64.4 °F 73% 29.85 in 10.0 mi SW 6.9 mph 18.4 mph N/A   Mostly Cloudy
4:55 PM 73.4 °F - 64.4 °F 73% 29.85 in 10.0 mi WSW 9.2 mph 16.1 mph N/A   Mostly Cloudy
5:15 PM 69.8 °F - 68.0 °F 94% 29.87 in 1.5 mi WNW 12.7 mph 18.4 mph N/A Rain Heavy Rain
5:40 PM 68.0 °F - 68.0 °F 100% 29.89 in 7.0 mi WNW 8.1 mph - N/A Rain Heavy Rain
5:55 PM 68.0 °F - 68.0 °F 100% 29.89 in 10.0 mi WNW 8.1 mph - N/A   Mostly Cloudy
6:15 PM 68.0 °F - 68.0 °F 100% 29.90 in 10.0 mi West 9.2 mph - N/A   Overcast
6:35 PM 68.0 °F - 68.0 °F 100% 29.91 in 10.0 mi West 8.1 mph - N/A   Overcast
6:55 PM 66.2 °F - 66.2 °F 100% 29.92 in 10.0 mi West 9.2 mph - N/A   Mostly Cloudy
7:15 PM 66.2 °F - 66.2 °F 100% 29.92 in 10.0 mi West 6.9 mph - N/A   Mostly Cloudy
7:35 PM 64.4 °F - 64.4 °F 100% 29.94 in 10.0 mi West 9.2 mph - N/A   Overcast
7:55 PM 64.4 °F - 64.4 °F 100% 29.96 in 10.0 mi West 6.9 mph - N/A   Scattered Clouds
8:15 PM 62.6 °F - 62.6 °F 100% 29.97 in 10.0 mi West 6.9 mph - N/A   Clear
8:35 PM 62.6 °F - 62.6 °F 100% 29.97 in 10.0 mi West 6.9 mph - N/A   Clear
8:55 PM 62.6 °F - 60.8 °F 94% 29.98 in 10.0 mi West 5.8 mph - N/A   Clear
9:15 PM 60.8 °F - 60.8 °F 100% 30.00 in 10.0 mi WNW 8.1 mph - N/A   Clear
9:35 PM 60.8 °F - 59.0 °F 94% 30.01 in 10.0 mi NW 10.4 mph - N/A   Scattered Clouds
9:55 PM 59.0 °F - 55.4 °F 88% 30.03 in 10.0 mi NNW 12.7 mph 26.5 mph N/A   Mostly Cloudy
10:15 PM 57.2 °F - 53.6 °F 88% 30.04 in 10.0 mi NNW 10.4 mph 19.6 mph N/A   Overcast
10:35 PM 55.4 °F - 51.8 °F 88% 30.05 in 10.0 mi North 9.2 mph - N/A   Overcast
10:55 PM 53.6 °F - 50.0 °F 88% 30.07 in 10.0 mi NNE 10.4 mph 16.1 mph N/A   Overcast
11:15 PM 50.0 °F - 46.4 °F 87% 30.08 in 10.0 mi NNE 8.1 mph 17.3 mph N/A   Overcast
11:35 PM 48.2 °F - 46.4 °F 93% 30.09 in 10.0 mi NE 10.4 mph 16.1 mph N/A   Overcast
11:55 PM 46.4 °F 42.4 °F 44.6 °F 93% 30.10 in 10.0 mi North 8.1 mph - N/A   Overcast